Metar Cercanos

 

LEPA - Palma De Mallorc, Spain
Distance from station: ONO 38km
Actualización: Mon, 27-Jun-2022 11:00am CEST
Parcialmente nuboso
Parcialmente nuboso
 Viento del ENE
Viento: ENE 13 km/h
Temperatura: 29°C
Indice Calor: 31°C
Rocío: 20°C
Humedad: 58%
Barómetro: 1013 hPa
Clouds: Parcialmente nuboso
Visibility: 10 km
Cloud details: Parcialmente nuboso 914 m
2022/06/27 09:00 LEPA 270900Z 06007KT 020V100 9999 SCT030 29/20 Q1013 NOSIG
LEMH - Mahon/Menorca Is, Spain
Distance from station: ENE 105km
Actualización: Mon, 27-Jun-2022 11:00am CEST
Muy nuboso
Muy nuboso
 Viento del NE
Viento: NE 22 km/h
Temperatura: 26°C
Rocío: 21°C
Humedad: 74%
Barómetro: 1014 hPa
Clouds: Muy nuboso
Visibility: 10 km
Cloud details: Parcialmente nuboso 396 m
Muy nuboso 610 m
2022/06/27 09:00 LEMH 270900Z 04012KT 9999 SCT013 BKN020 26/21 Q1014
 
LEIB - Ibiza/Es Codola, Spain
Distance from station: OSO 165km
Actualización: Mon, 27-Jun-2022 11:00am CEST
Parcialmente nuboso
Parcialmente nuboso
 Viento del S
Viento: S 11 km/h
Temperatura: 26°C
Rocío: 20°C
Humedad: 70%
Barómetro: 1012 hPa
Clouds: Parcialmente nuboso
Visibility: 10 km
Cloud details: Parcialmente nuboso 488 m
2022/06/27 09:00 LEIB 270900Z 17006KT 110V210 9999 SCT016 26/20 Q1012 NOSIG
LEBL - Barcelona Airpor, Spain
Distance from station: NNO 225km
Actualización: Mon, 27-Jun-2022 11:00am CEST
Few Clouds
Few Clouds
 Viento del SSE
Viento: SSE 13 km/h
Temperatura: 25°C
Rocío: 20°C
Humedad: 74%
Barómetro: 1014 hPa
Clouds: Few Clouds
Visibility: 10 km
Cloud details: Few Clouds 762 m
2022/06/27 09:00 LEBL 270900Z 16007KT 120V200 9999 FEW025 25/20 Q1014 NOSIG
 
LEVC - Valencia (civ/Mi, Spain
Distance from station: NO 188km
Actualización: Mon, 27-Jun-2022 11:00am CEST
Lluvia débil, Few clouds
Lluvia débil, Few clouds
 Viento del ENE
Viento: ENE 19 km/h
Temperatura: 25°C
Rocío: 17°C
Humedad: 61%
Barómetro: 1013 hPa
Resumen: Lluvia débil
Clouds: Few Clouds
Visibility: 10 km
Cloud details: Few Clouds 457 m
Muy nuboso 914 m
Few Clouds 1067 m
2022/06/27 09:00 LEVC 270900Z 06010KT 030V090 9999 -RA FEW015 BKN030 FEW035CB 25/17 Q1013 RETS TEMPO TS
LEGE - Gerona/Costa Bra, Spain
Distance from station: N 276km
Actualización: Mon, 27-Jun-2022 11:00am CEST
Few Clouds
Few Clouds
 Viento del NNE
Viento: NNE 19 km/h
Temperatura: 25°C
Rocío: 12°C
Humedad: 44%
Barómetro: 1014 hPa
Clouds: Few Clouds
Visibility: 10 km
Cloud details: Few Clouds 914 m
2022/06/27 09:00 LEGE 270900Z 03010KT 330V080 9999 FEW030 25/12 Q1014
 
LEAL - Alicante/El Alte, Spain
Distance from station: OSO 344km
Actualización: Mon, 27-Jun-2022 11:00am CEST
Few Clouds
Few Clouds
 Viento del E
Viento: E 11 km/h
Temperatura: 25°C
Rocío: 20°C
Humedad: 74%
Barómetro: 1013 hPa
Clouds: Few Clouds
Visibility: 10 km
Cloud details: Few Clouds 305 m
2022/06/27 09:00 LEAL 270900Z 09006KT 050V130 9999 FEW010 25/20 Q1013 NOSIG
LEAM - Almeria Airport, Spain
Distance from station: SSO 56km
Actualización: Mon, 27-Jun-2022 11:00am CEST
Despejado
Despejado
 Viento del SSE
Viento: SSE 9 km/h
Temperatura: 21°C
Rocío: 15°C
Humedad: 69%
Barómetro: 1013 hPa
Resumen: Despejado
Visibility: greater than 10 km
2022/06/27 09:00 LEAM 270900Z 15005KT 110V200 CAVOK 21/15 Q1013
 
LEZG - Zaragoza (mil/Ci, Spain
Distance from station: NO 431km
Actualización: Mon, 27-Jun-2022 11:00am CEST
Despejado
Despejado
 Viento del NO
Viento: NO 35 km/h
Temperatura: 20°C
Rocío: 11°C
Humedad: 56%
Barómetro: 1017 hPa
Resumen: Despejado
Visibility: greater than 10 km
2022/06/27 09:00 LEZG 270900Z 31019KT CAVOK 20/11 Q1017
LEMD - Madrid/Barajas, Spain
Distance from station: ONO 234km
Actualización: Mon, 27-Jun-2022 11:00am CEST
Despejado
Despejado
 Viento del ENE
Viento: ENE 9 km/h
Temperatura: 22°C
Rocío: 7°C
Humedad: 38%
Barómetro: 1016 hPa
Resumen: Despejado
Visibility: greater than 10 km
2022/06/27 09:00 LEMD 270900Z 06005KT CAVOK 22/07 Q1016 NOSIG
 
LEGR - Granada Airport, Spain
Distance from station: OSO 62km
Actualización: Mon, 27-Jun-2022 11:00am CEST
Despejado
Despejado
 Viento del varies
Viento: varies 4 km/h
Temperatura: 21°C
Rocío: 5°C
Humedad: 35%
Barómetro: 1017 hPa
Resumen: Despejado
Visibility: greater than 10 km
2022/06/27 09:00 LEGR 270900Z VRB02KT CAVOK 21/05 Q1017
LEMG - Malaga (civ/Mil), Spain
Distance from station: OSO 227km
Actualización: Mon, 27-Jun-2022 11:00am CEST
Despejado
Despejado
 Viento del O
Viento: O 26 km/h
Temperatura: 26°C
Rocío: 6°C
Humedad: 28%
Barómetro: 1014 hPa
Resumen: Despejado
Visibility: greater than 10 km
2022/06/27 09:00 LEMG 270900Z 27014KT CAVOK 26/06 Q1014 NOSIG
 
LEZL - Sevilla (civ/Mil, Spain
Distance from station: S 318km
Actualización: Mon, 27-Jun-2022 11:00am CEST
Despejado
Despejado
 Viento del ONO
Viento: ONO 7 km/h
Temperatura: 21°C
Rocío: 6°C
Humedad: 38%
Barómetro: 1017 hPa
Resumen: Despejado
Visibility: greater than 10 km
2022/06/27 09:00 LEZL 270900Z 30004KT CAVOK 21/06 Q1017 NOSIG
LEVT - Vitoria, Spain
Distance from station: NO 226km
Actualización: Mon, 27-Jun-2022 11:00am CEST
Muy nuboso
Muy nuboso
 Viento del NNE
Viento: NNE 20 km/h
Temperatura: 14°C
Rocío: 9°C
Humedad: 72%
Barómetro: 1021 hPa
Clouds: Muy nuboso
Visibility: 9 km
Cloud details: Few Clouds 457 m
Muy nuboso 762 m
2022/06/27 09:00 LEVT 270900Z 02011KT 350V050 9000 FEW015 BKN025 14/09 Q1021
 
LEBB - Bilbao/Sondica, Spain
Distance from station: NNO 235km
Actualización: Mon, 27-Jun-2022 11:00am CEST
Muy nuboso
Muy nuboso
 Viento del NO
Viento: NO 15 km/h
Temperatura: 17°C
Rocío: 12°C
Humedad: 73%
Barómetro: 1022 hPa
Clouds: Muy nuboso
Visibility: 10 km
Cloud details: Few Clouds 792 m
Parcialmente nuboso 1097 m
Muy nuboso 1372 m
2022/06/27 09:00 LEBB 270900Z 31008KT 280V340 9999 FEW026 SCT036 BKN045 17/12 Q1022 NOSIG
LESO - San Sebastian/Fu, Spain
Distance from station: N 231km
Actualización: Mon, 27-Jun-2022 11:00am CEST
Muy nuboso
Muy nuboso
 Viento del S
Viento: S 6 km/h
Temperatura: 16°C
Rocío: 16°C
Humedad: 100%
Barómetro: 1021 hPa
Clouds: Muy nuboso
Visibility: 10 km
Cloud details: Parcialmente nuboso 457 m
Muy nuboso 1067 m
2022/06/27 09:00 LESO 270900Z 17003KT 9999 SCT015 BKN035 16/16 Q1021
 
LEVD - Valladolid(Mil/C, Spain
Distance from station: ONO 239km
Actualización: Mon, 27-Jun-2022 11:00am CEST
Despejado
Despejado
 Viento del ENE
Viento: ENE 20 km/h
Temperatura: 15°C
Rocío: 7°C
Humedad: 59%
Barómetro: 1020 hPa
Resumen: Despejado
Visibility: greater than 10 km
2022/06/27 09:00 LEVD 270900Z 06011KT CAVOK 15/07 Q1020
LESA - Salamanca (civ/M, Spain
Distance from station: ONO 349km
Actualización: Mon, 27-Jun-2022 11:00am CEST
Few Clouds
Few Clouds
 Viento del ENE
Viento: ENE 9 km/h
Temperatura: 15°C
Rocío: 6°C
Humedad: 55%
Barómetro: 1020 hPa
Clouds: Few Clouds
Visibility: 10 km
Cloud details: Few Clouds 671 m
2022/06/27 09:00 LESA 270900Z 06005KT 010V140 9999 FEW022 15/06 Q1020
 
LEXJ - Santander/Paraya, Spain
Distance from station: NNO 247km
Actualización: Mon, 27-Jun-2022 11:00am CEST
Muy nuboso
Muy nuboso
 Viento del O
Viento: O 15 km/h
Temperatura: 15°C
Rocío: 13°C
Humedad: 88%
Barómetro: 1023 hPa
Clouds: Muy nuboso
Visibility: 10 km
Cloud details: Parcialmente nuboso 549 m
Muy nuboso 1067 m
2022/06/27 09:00 LEXJ 270900Z 26008KT 9999 SCT018 BKN035 15/13 Q1023
LEAS - Asturias/Aviles, Spain
Distance from station: NO 214km
Actualización: Mon, 27-Jun-2022 11:00am CEST
Parcialmente nuboso
Parcialmente nuboso
 Viento del NO
Viento: NO 9 km/h
Temperatura: 16°C
Rocío: 11°C
Humedad: 72%
Barómetro: 1023 hPa
Clouds: Parcialmente nuboso
Visibility: 10 km
Cloud details: Parcialmente nuboso 2042 m
2022/06/27 09:00 LEAS 270900Z 32005KT 250V030 9999 SCT067 16/11 Q1023 NOSIG
 
LECO - La Coruna/Alvedr, Spain
Distance from station: ONO 222km
Actualización: Mon, 27-Jun-2022 11:00am CEST
Parcialmente nuboso
Parcialmente nuboso
 Viento del NNE
Viento: NNE 6 km/h
Temperatura: 16°C
Rocío: 10°C
Humedad: 68%
Barómetro: 1023 hPa
Clouds: Parcialmente nuboso
Visibility: 10 km
Cloud details: Few Clouds 671 m
Parcialmente nuboso 1067 m
2022/06/27 09:00 LECO 270900Z 03003KT 300V080 9999 FEW022 SCT035 16/10 Q1023 NOSIG
LEVX - Vigo/Peinador, Spain
Distance from station: O 214km
Actualización: Mon, 27-Jun-2022 11:00am CEST
Despejado
Despejado
 Viento del varies
Viento: varies 9 km/h
Temperatura: 16°C
Rocío: 9°C
Humedad: 63%
Barómetro: 1022 hPa
Resumen: Despejado
Visibility: greater than 10 km
2022/06/27 09:00 LEVX 270900Z VRB05KT CAVOK 16/09 Q1022 NOSIG